createdAt,value
2022-09-22T00:02:14.696Z,0.47
2022-09-22T00:04:41.223Z,0.50
2022-09-22T00:07:09.072Z,0.60
2022-09-22T00:09:35.514Z,0.43
2022-09-22T00:12:02.089Z,0.47
2022-09-22T00:14:28.643Z,0.80
2022-09-22T00:16:57.124Z,0.52
2022-09-22T00:19:34.186Z,0.50
2022-09-22T00:22:00.912Z,0.40
2022-09-22T00:24:27.947Z,0.40
2022-09-22T00:26:57.245Z,0.32
2022-09-22T00:29:27.613Z,0.50
2022-09-22T00:31:54.438Z,0.22
2022-09-22T00:34:23.173Z,0.40
2022-09-22T00:36:49.799Z,0.60
2022-09-22T00:39:16.922Z,0.40
2022-09-22T00:41:45.203Z,0.40
2022-09-22T00:44:26.854Z,0.40
2022-09-22T00:47:16.312Z,0.45
2022-09-22T00:50:19.200Z,0.45
2022-09-22T00:52:49.890Z,0.30
2022-09-22T00:55:40.895Z,0.50
2022-09-22T00:58:09.811Z,0.40
2022-09-22T01:00:36.376Z,0.30
2022-09-22T01:03:03.859Z,0.40
2022-09-22T01:05:30.415Z,0.50
2022-09-22T01:07:56.934Z,0.30
2022-09-22T01:10:24.146Z,0.30
2022-09-22T01:13:27.756Z,0.40
2022-09-22T01:16:01.035Z,0.30
2022-09-22T01:18:53.366Z,0.37
2022-09-22T01:21:38.576Z,0.50
2022-09-22T01:24:30.564Z,0.45
2022-09-22T01:27:06.739Z,0.30
2022-09-22T01:29:55.098Z,0.40
2022-09-22T01:33:08.366Z,0.50
2022-09-22T01:35:43.971Z,0.40
2022-09-22T01:38:18.030Z,0.40
2022-09-22T01:43:36.974Z,0.50
2022-09-22T01:46:09.931Z,0.40
2022-09-22T01:48:36.807Z,0.52
2022-09-22T01:51:14.599Z,0.45
2022-09-22T01:53:43.712Z,0.40
2022-09-22T01:56:11.078Z,0.35
2022-09-22T01:58:44.561Z,0.57
2022-09-22T02:01:14.939Z,0.35
2022-09-22T02:03:44.596Z,0.57
2022-09-22T02:06:13.780Z,0.40
2022-09-22T02:08:44.387Z,0.55
2022-09-22T02:11:13.820Z,0.50
2022-09-22T02:13:40.820Z,0.40
2022-09-22T02:16:07.447Z,0.47
2022-09-22T02:18:50.066Z,0.30
2022-09-22T02:21:16.613Z,0.40
2022-09-22T02:23:43.145Z,0.38
2022-09-22T02:26:09.600Z,0.40
2022-09-22T02:28:38.637Z,0.40
2022-09-22T02:31:19.416Z,0.38
2022-09-22T02:33:46.722Z,0.40
2022-09-22T02:36:35.384Z,0.30
2022-09-22T02:39:14.547Z,0.50
2022-09-22T02:42:16.643Z,0.25
2022-09-22T02:45:12.247Z,0.40
2022-09-22T02:48:10.289Z,0.38
2022-09-22T02:50:36.773Z,0.40
2022-09-22T02:53:10.035Z,0.50
2022-09-22T02:55:36.488Z,0.37
2022-09-22T02:58:02.972Z,0.30
2022-09-22T03:00:29.429Z,0.38
2022-09-22T03:02:55.896Z,0.40
2022-09-22T03:05:22.353Z,0.38
2022-09-22T03:07:48.811Z,0.30
2022-09-22T03:10:15.507Z,0.40
2022-09-22T03:13:14.385Z,0.30
2022-09-22T03:15:30.287Z,0.55
2022-09-22T03:17:56.776Z,0.50
2022-09-22T03:20:23.250Z,0.50
2022-09-22T03:22:49.707Z,0.50
2022-09-22T03:25:16.193Z,0.40
2022-09-22T03:27:42.653Z,0.40
2022-09-22T03:30:09.911Z,0.40
2022-09-22T03:32:36.672Z,0.30
2022-09-22T03:35:03.166Z,0.40
2022-09-22T03:37:29.620Z,0.50
2022-09-22T03:39:56.115Z,0.20
2022-09-22T03:42:22.558Z,0.40
2022-09-22T03:44:49.022Z,0.50
2022-09-22T03:47:15.489Z,0.63
2022-09-22T03:49:41.950Z,0.30
2022-09-22T03:52:08.398Z,0.30
2022-09-22T03:54:37.061Z,0.30
2022-09-22T03:57:03.992Z,0.40
2022-09-22T03:59:30.513Z,0.30
2022-09-22T04:01:58.369Z,0.28
2022-09-22T04:04:25.047Z,0.35
2022-09-22T04:06:51.510Z,0.32
2022-09-22T04:09:18.455Z,0.35
2022-09-22T04:11:44.906Z,0.50
2022-09-22T04:14:11.373Z,0.57
2022-09-22T04:16:39.233Z,0.38
2022-09-22T04:19:05.736Z,0.43
2022-09-22T04:21:32.292Z,0.50
2022-09-22T04:23:58.763Z,0.47
2022-09-22T04:26:25.470Z,0.40
2022-09-22T04:28:51.943Z,0.43
2022-09-22T04:31:19.644Z,0.35
2022-09-22T04:33:46.189Z,0.45
2022-09-22T04:36:12.813Z,0.30
2022-09-22T04:38:39.286Z,0.28
2022-09-22T04:41:05.728Z,0.30
2022-09-22T04:43:32.207Z,0.50
2022-09-22T04:45:58.695Z,0.32
2022-09-22T04:48:25.246Z,0.50
2022-09-22T04:50:51.708Z,1.00
2022-09-22T04:53:18.175Z,0.93
2022-09-22T04:55:45.030Z,0.80
2022-09-22T04:58:11.500Z,1.30
2022-09-22T05:00:38.751Z,1.40
2022-09-22T05:03:09.476Z,1.40
2022-09-22T05:05:36.035Z,1.50
2022-09-22T05:08:02.539Z,1.42
2022-09-22T05:10:32.169Z,1.30
2022-09-22T05:12:59.043Z,1.45
2022-09-22T05:15:25.672Z,1.23
2022-09-22T05:17:52.985Z,1.45
2022-09-22T05:20:20.245Z,1.55
2022-09-22T05:22:47.355Z,1.65
2022-09-22T05:25:16.816Z,1.50
2022-09-22T05:27:47.136Z,1.48
2022-09-22T05:30:13.759Z,1.38
2022-09-22T05:32:46.599Z,1.30
2022-09-22T05:35:18.264Z,1.55
2022-09-22T05:37:45.505Z,1.60
2022-09-22T05:40:12.185Z,1.30
2022-09-22T05:42:46.426Z,1.35
2022-09-22T05:45:13.111Z,1.40
2022-09-22T05:47:39.728Z,1.40
2022-09-22T05:50:07.172Z,1.23
2022-09-22T05:52:33.717Z,1.83
2022-09-22T05:55:00.192Z,1.50
2022-09-22T05:57:27.518Z,1.67
2022-09-22T05:59:54.528Z,1.30
2022-09-22T06:02:26.123Z,1.63
2022-09-22T06:04:53.241Z,1.33
2022-09-22T06:07:24.043Z,1.70
2022-09-22T06:09:50.629Z,1.52
2022-09-22T06:12:17.356Z,1.83
2022-09-22T06:14:43.814Z,1.55
2022-09-22T06:17:10.520Z,2.05
2022-09-22T06:19:37.308Z,1.80
2022-09-22T06:22:03.757Z,1.58
2022-09-22T06:24:30.256Z,1.70
2022-09-22T06:26:56.712Z,1.52
2022-09-22T06:29:23.200Z,1.60
2022-09-22T06:31:49.725Z,1.70
2022-09-22T06:34:16.285Z,1.70
2022-09-22T06:36:45.197Z,1.58
2022-09-22T06:39:12.276Z,1.30
2022-09-22T06:41:38.731Z,1.23
2022-09-22T06:44:05.352Z,2.08
2022-09-22T06:46:33.873Z,1.38
2022-09-22T06:49:00.483Z,1.50
2022-09-22T06:51:28.107Z,1.50
2022-09-22T06:53:57.339Z,1.42
2022-09-22T06:56:25.449Z,1.38
2022-09-22T06:59:09.421Z,1.30
2022-09-22T07:01:37.035Z,1.38
2022-09-22T07:04:04.565Z,1.08
2022-09-22T07:06:31.048Z,1.25
2022-09-22T07:08:57.596Z,1.10
2022-09-22T07:11:24.086Z,1.25
2022-09-22T07:13:53.360Z,1.10
2022-09-22T07:16:21.179Z,1.02
2022-09-22T07:18:49.439Z,0.80
2022-09-22T07:21:20.856Z,0.88
2022-09-22T07:23:49.809Z,1.02
2022-09-22T07:26:21.804Z,1.05
2022-09-22T07:28:51.832Z,0.85
2022-09-22T07:31:18.308Z,1.20
2022-09-22T07:33:45.436Z,1.20
2022-09-22T07:36:13.060Z,0.85
2022-09-22T07:38:39.995Z,1.17
2022-09-22T07:41:12.288Z,1.05
2022-09-22T07:43:39.135Z,1.30
2022-09-22T07:46:05.805Z,1.20
2022-09-22T07:48:38.016Z,1.10
2022-09-22T07:51:16.530Z,1.33
2022-09-22T07:53:43.307Z,1.00
2022-09-22T07:56:13.390Z,0.88
2022-09-22T07:58:41.445Z,0.80
2022-09-22T08:01:08.692Z,1.00
2022-09-22T08:03:37.564Z,0.90
2022-09-22T08:06:11.032Z,0.93
2022-09-22T08:08:44.659Z,0.90
2022-09-22T08:11:15.568Z,0.93
2022-09-22T08:13:43.704Z,1.02
2022-09-22T08:16:11.584Z,0.70
2022-09-22T08:18:39.568Z,0.70
2022-09-22T08:21:07.838Z,0.63
2022-09-22T08:23:34.427Z,0.70
2022-09-22T08:26:08.030Z,0.90
2022-09-22T08:28:34.734Z,0.75
2022-09-22T08:31:01.493Z,0.73
2022-09-22T08:33:29.600Z,0.70
2022-09-22T08:35:57.312Z,0.90
2022-09-22T08:38:23.824Z,0.80
2022-09-22T08:41:27.167Z,0.95
2022-09-22T08:44:00.532Z,0.70
2022-09-22T08:46:39.701Z,0.77
2022-09-22T08:49:46.228Z,0.70
2022-09-22T08:52:32.807Z,0.70
2022-09-22T08:54:59.766Z,0.82
2022-09-22T08:57:45.067Z,0.73
2022-09-22T09:00:13.065Z,0.80
2022-09-22T09:02:49.209Z,0.90
2022-09-22T09:05:30.373Z,0.85
2022-09-22T09:08:14.887Z,0.70
2022-09-22T09:10:59.122Z,1.13
2022-09-22T09:13:55.919Z,0.88
2022-09-22T09:16:57.272Z,0.70
2022-09-22T09:19:43.587Z,0.90
2022-09-22T09:22:25.144Z,0.90
2022-09-22T09:27:43.486Z,1.10
2022-09-22T09:30:18.081Z,0.90
2022-09-22T09:32:56.388Z,1.00
2022-09-22T09:35:26.439Z,1.05
2022-09-22T09:37:54.916Z,1.15
2022-09-22T09:40:22.019Z,1.25
2022-09-22T09:43:06.852Z,1.02
2022-09-22T09:46:01.340Z,0.90
2022-09-22T09:48:46.648Z,0.75
2022-09-22T09:51:13.622Z,0.60
2022-09-22T09:53:44.719Z,0.80
2022-09-22T09:56:24.369Z,0.60
2022-09-22T09:59:19.328Z,0.70
2022-09-22T10:01:47.138Z,0.82
2022-09-22T10:04:18.692Z,0.50
2022-09-22T10:06:46.283Z,0.90
2022-09-22T10:09:23.538Z,0.68
2022-09-22T10:12:02.450Z,0.70
2022-09-22T10:14:33.387Z,0.77
2022-09-22T10:17:00.050Z,0.70
2022-09-22T10:19:30.764Z,0.70
2022-09-22T10:22:17.390Z,0.57
2022-09-22T10:24:54.796Z,0.70
2022-09-22T10:27:21.901Z,0.40
2022-09-22T10:29:48.380Z,0.50
2022-09-22T10:32:15.599Z,0.68
2022-09-22T10:37:18.781Z,0.40
2022-09-22T10:39:52.795Z,0.50
2022-09-22T10:42:47.773Z,0.45
2022-09-22T10:45:15.612Z,0.60
2022-09-22T10:47:57.922Z,0.50
2022-09-22T10:50:51.125Z,0.60
2022-09-22T10:53:35.592Z,0.80
2022-09-22T10:56:43.798Z,0.55
2022-09-22T10:59:55.354Z,0.70
2022-09-22T11:02:58.685Z,0.55
2022-09-22T11:05:57.093Z,0.55
2022-09-22T11:08:42.822Z,0.65
2022-09-22T11:11:41.698Z,0.50
2022-09-22T11:14:25.127Z,0.60
2022-09-22T11:16:57.511Z,0.68
2022-09-22T11:19:47.429Z,0.55
2022-09-22T11:22:40.011Z,0.43
2022-09-22T11:25:21.454Z,0.40
2022-09-22T11:28:20.624Z,0.52
2022-09-22T11:30:49.968Z,0.40
2022-09-22T11:33:39.332Z,0.40
2022-09-22T11:36:27.418Z,0.32
2022-09-22T11:39:09.375Z,0.70
2022-09-22T11:42:09.381Z,0.50
2022-09-22T11:45:16.014Z,0.40
2022-09-22T11:48:16.607Z,0.30
2022-09-22T11:51:14.631Z,0.52
2022-09-22T11:54:03.064Z,0.43
2022-09-22T11:56:39.590Z,0.40
2022-09-22T11:59:28.687Z,0.40
2022-09-22T12:01:55.560Z,0.52
2022-09-22T12:04:39.985Z,0.60
2022-09-22T12:09:39.503Z,0.52
2022-09-22T12:12:06.180Z,0.55
2022-09-22T12:14:32.939Z,0.52
2022-09-22T12:17:10.326Z,0.40
2022-09-22T12:19:59.831Z,0.40
2022-09-22T12:22:52.593Z,0.40
2022-09-22T12:25:54.966Z,0.60
2022-09-22T12:28:25.778Z,0.50
2022-09-22T12:31:06.135Z,0.80
2022-09-22T12:33:33.965Z,0.50
2022-09-22T12:36:00.412Z,0.60
2022-09-22T12:38:27.204Z,0.50
2022-09-22T12:40:54.667Z,0.40
2022-09-22T12:43:22.203Z,0.63
2022-09-22T12:45:48.710Z,0.40
2022-09-22T12:48:29.757Z,0.30
2022-09-22T12:51:15.213Z,0.32
2022-09-22T12:53:43.828Z,0.30
2022-09-22T12:56:41.914Z,0.40
2022-09-22T12:59:37.493Z,0.50
2022-09-22T13:02:41.428Z,0.50
2022-09-22T13:05:10.538Z,0.50
2022-09-22T13:07:38.307Z,0.50
2022-09-22T13:10:23.211Z,0.52
2022-09-22T13:13:09.297Z,0.77
2022-09-22T13:15:48.156Z,0.50
2022-09-22T13:18:37.266Z,0.50
2022-09-22T13:21:12.395Z,0.40
2022-09-22T13:23:50.920Z,0.68
2022-09-22T13:26:30.819Z,0.60
2022-09-22T13:29:19.706Z,0.45
2022-09-22T13:31:54.216Z,0.60
2022-09-22T13:34:21.409Z,0.70
2022-09-22T13:36:47.975Z,0.68
2022-09-22T13:39:18.411Z,0.65
2022-09-22T13:41:50.406Z,0.70
2022-09-22T13:44:19.618Z,0.47
2022-09-22T13:46:47.271Z,0.60
2022-09-22T13:49:17.960Z,0.50
2022-09-22T13:51:49.139Z,0.47
2022-09-22T13:54:18.190Z,0.70
2022-09-22T13:56:44.743Z,0.50
2022-09-22T13:59:12.389Z,0.70
2022-09-22T14:01:45.725Z,0.57
2022-09-22T14:04:26.714Z,0.60
2022-09-22T14:07:00.815Z,0.70
2022-09-22T14:11:54.902Z,0.40
2022-09-22T14:14:23.560Z,0.50
2022-09-22T14:16:52.532Z,0.50
2022-09-22T14:19:22.329Z,0.43
2022-09-22T14:21:55.939Z,0.80
2022-09-22T14:24:22.437Z,0.80
2022-09-22T14:27:03.793Z,0.95
2022-09-22T14:29:31.926Z,1.00
2022-09-22T14:32:14.650Z,0.80
2022-09-22T14:34:45.707Z,0.55
2022-09-22T14:37:14.555Z,0.70
2022-09-22T14:39:41.510Z,0.65
2022-09-22T14:42:18.142Z,0.63
2022-09-22T14:44:49.684Z,0.80
2022-09-22T14:47:27.451Z,0.63
2022-09-22T14:50:14.391Z,0.40
2022-09-22T14:52:46.383Z,0.80
2022-09-22T14:55:28.582Z,0.57
2022-09-22T14:57:55.064Z,0.68
2022-09-22T15:00:40.096Z,0.60
2022-09-22T15:03:15.924Z,0.60
2022-09-22T15:05:44.232Z,0.50
2022-09-22T15:08:18.696Z,0.60
2022-09-22T15:10:56.173Z,0.60
2022-09-22T15:13:29.998Z,0.45
2022-09-22T15:15:56.506Z,0.40
2022-09-22T15:18:25.373Z,0.50
2022-09-22T15:21:06.531Z,0.40
2022-09-22T15:23:44.684Z,0.30
2022-09-22T15:26:21.664Z,0.40
2022-09-22T15:28:51.212Z,0.43
2022-09-22T15:31:22.326Z,0.50
2022-09-22T15:33:49.202Z,0.40
2022-09-22T15:36:16.255Z,0.40
2022-09-22T15:38:42.713Z,0.30
2022-09-22T15:41:12.325Z,0.55
2022-09-22T15:43:39.413Z,0.30
2022-09-22T15:46:08.819Z,0.20
2022-09-22T15:48:39.093Z,0.30
2022-09-22T15:51:12.909Z,0.45
2022-09-22T15:53:40.327Z,0.50
2022-09-22T15:56:11.039Z,0.50
2022-09-22T15:58:39.706Z,0.20
2022-09-22T16:01:07.863Z,0.38
2022-09-22T16:03:37.934Z,0.40
2022-09-22T16:06:09.870Z,0.30
2022-09-22T16:08:40.183Z,0.45
2022-09-22T16:11:06.644Z,0.30
2022-09-22T16:13:33.335Z,0.40
2022-09-22T16:16:01.667Z,0.35
2022-09-22T16:18:28.149Z,0.60
2022-09-22T16:21:03.285Z,0.40
2022-09-22T16:23:29.827Z,0.50
2022-09-22T16:25:56.294Z,0.57
2022-09-22T16:28:22.764Z,0.30
2022-09-22T16:30:49.234Z,0.50
2022-09-22T16:33:15.681Z,0.57
2022-09-22T16:35:42.138Z,0.30
2022-09-22T16:38:08.578Z,0.40
2022-09-22T16:40:35.041Z,0.35
2022-09-22T16:43:02.480Z,0.40
2022-09-22T16:45:47.528Z,0.50
2022-09-22T16:48:14.295Z,0.40
2022-09-22T16:50:42.990Z,0.43
2022-09-22T16:53:09.440Z,0.50
2022-09-22T16:55:37.576Z,0.50
2022-09-22T16:58:07.233Z,0.50
2022-09-22T17:00:33.804Z,0.50
2022-09-22T17:03:00.358Z,0.50
2022-09-22T17:05:26.888Z,0.50
2022-09-22T17:07:53.364Z,0.35
2022-09-22T17:10:20.040Z,0.50
2022-09-22T17:12:46.548Z,0.50
2022-09-22T17:15:13.083Z,0.50
2022-09-22T17:17:40.430Z,0.40
2022-09-22T17:20:07.248Z,0.47
2022-09-22T17:22:33.709Z,0.30
2022-09-22T17:25:00.182Z,0.50
2022-09-22T17:27:26.929Z,0.40
2022-09-22T17:29:53.388Z,0.68
2022-09-22T17:32:19.909Z,0.50
2022-09-22T17:34:46.415Z,0.35
2022-09-22T17:37:15.488Z,0.43
2022-09-22T17:39:43.522Z,0.40
2022-09-22T17:42:10.978Z,0.45
2022-09-22T17:44:37.625Z,0.32
2022-09-22T17:47:22.717Z,0.40
2022-09-22T17:50:07.528Z,0.40
2022-09-22T17:52:39.670Z,0.40
2022-09-22T17:55:11.921Z,0.70
2022-09-22T17:57:39.857Z,0.38
2022-09-22T18:00:08.465Z,0.28
2022-09-22T18:02:38.849Z,0.30
2022-09-22T18:05:09.127Z,0.50
2022-09-22T18:07:40.308Z,0.50
2022-09-22T18:10:12.192Z,0.50
2022-09-22T18:12:38.768Z,0.45
2022-09-22T18:15:05.808Z,0.43
2022-09-22T18:17:35.002Z,0.40
2022-09-22T18:20:01.632Z,0.63
2022-09-22T18:22:29.382Z,0.30
2022-09-22T18:24:56.161Z,0.35
2022-09-22T18:27:27.074Z,0.40
2022-09-22T18:29:58.485Z,0.30
2022-09-22T18:32:26.499Z,0.30
2022-09-22T18:34:53.879Z,0.30
2022-09-22T18:37:21.319Z,0.40
2022-09-22T18:39:50.183Z,0.30
2022-09-22T18:42:22.678Z,0.50
2022-09-22T18:44:49.170Z,0.30
2022-09-22T18:47:18.463Z,0.40
2022-09-22T18:49:48.057Z,0.40
2022-09-22T18:52:16.089Z,0.20
2022-09-22T18:54:45.642Z,0.40
2022-09-22T18:57:15.395Z,0.40
2022-09-22T18:59:41.964Z,0.40
2022-09-22T19:02:11.874Z,0.45
2022-09-22T19:04:38.877Z,0.45
2022-09-22T19:07:23.947Z,0.28
2022-09-22T19:09:52.359Z,0.50
2022-09-22T19:12:20.337Z,0.35
2022-09-22T19:14:48.105Z,0.40
2022-09-22T19:17:17.178Z,0.30
2022-09-22T19:19:49.754Z,0.40
2022-09-22T19:22:16.243Z,0.40
2022-09-22T19:24:44.766Z,0.30
2022-09-22T19:27:11.987Z,0.47
2022-09-22T19:29:38.460Z,0.50
2022-09-22T19:32:05.159Z,0.43
2022-09-22T19:34:31.711Z,0.60
2022-09-22T19:36:58.275Z,0.40
2022-09-22T19:39:24.880Z,0.30
2022-09-22T19:41:52.368Z,0.50
2022-09-22T19:44:20.208Z,0.38
2022-09-22T19:46:47.550Z,0.30
2022-09-22T19:49:14.288Z,0.20
2022-09-22T19:51:41.872Z,0.40
2022-09-22T19:54:08.859Z,0.32
2022-09-22T19:56:35.550Z,0.30
2022-09-22T19:59:02.469Z,0.40
2022-09-22T20:01:33.845Z,0.32
2022-09-22T20:04:00.429Z,0.50
2022-09-22T20:06:27.055Z,0.40
2022-09-22T20:09:02.517Z,0.40
2022-09-22T20:11:39.907Z,0.40
2022-09-22T20:14:22.554Z,0.50
2022-09-22T20:16:53.858Z,0.32
2022-09-22T20:19:23.901Z,0.38
2022-09-22T20:21:51.372Z,0.45
2022-09-22T20:24:19.646Z,0.50
2022-09-22T20:26:46.182Z,0.22
2022-09-22T20:29:13.339Z,0.40
2022-09-22T20:31:39.838Z,0.50
2022-09-22T20:34:06.551Z,0.40
2022-09-22T20:36:36.777Z,0.50
2022-09-22T20:39:04.321Z,0.35
2022-09-22T20:41:31.011Z,0.40
2022-09-22T20:43:58.368Z,0.40
2022-09-22T20:46:24.849Z,0.35
2022-09-22T20:48:53.714Z,0.60
2022-09-22T20:51:20.184Z,0.40
2022-09-22T20:53:47.170Z,0.65
2022-09-22T20:56:14.289Z,0.32
2022-09-22T20:58:42.508Z,0.40
2022-09-22T21:01:10.394Z,0.35
2022-09-22T21:03:38.083Z,0.50
2022-09-22T21:06:05.850Z,0.40
2022-09-22T21:08:50.903Z,0.60
2022-09-22T21:11:18.613Z,0.52
2022-09-22T21:13:45.103Z,0.45
2022-09-22T21:16:13.661Z,0.47
2022-09-22T21:18:40.195Z,0.57
2022-09-22T21:21:06.741Z,0.40
2022-09-22T21:23:33.223Z,0.70
2022-09-22T21:26:01.321Z,0.47
2022-09-22T21:28:28.082Z,0.47
2022-09-22T21:30:56.781Z,0.60
2022-09-22T21:33:23.823Z,0.57
2022-09-22T21:36:00.901Z,0.45
2022-09-22T21:38:27.947Z,0.60
2022-09-22T21:41:01.117Z,0.50
2022-09-22T21:43:28.031Z,0.30
2022-09-22T21:46:04.209Z,0.40
2022-09-22T21:48:31.829Z,0.50
2022-09-22T21:51:02.660Z,0.40
2022-09-22T21:53:29.768Z,0.40
2022-09-22T21:56:04.128Z,0.50
2022-09-22T21:58:32.748Z,0.30
2022-09-22T22:01:01.060Z,0.40
2022-09-22T22:03:30.420Z,0.50
2022-09-22T22:06:08.061Z,0.38
2022-09-22T22:08:37.885Z,0.40
2022-09-22T22:11:10.662Z,0.40
2022-09-22T22:13:38.672Z,0.60
2022-09-22T22:16:07.965Z,0.50
2022-09-22T22:18:35.168Z,0.40
2022-09-22T22:21:04.212Z,0.40
2022-09-22T22:23:38.614Z,0.43
2022-09-22T22:26:08.722Z,0.52
2022-09-22T22:28:35.425Z,0.30
2022-09-22T22:31:06.596Z,0.30
2022-09-22T22:33:36.818Z,0.60
2022-09-22T22:36:03.925Z,0.40
2022-09-22T22:38:33.168Z,0.40
2022-09-22T22:41:07.392Z,0.30
2022-09-22T22:43:33.934Z,0.57
2022-09-22T22:46:00.735Z,0.30
2022-09-22T22:48:27.365Z,0.30
2022-09-22T22:50:54.358Z,0.30
2022-09-22T22:53:20.862Z,0.50
2022-09-22T22:56:00.872Z,0.30
2022-09-22T22:58:32.245Z,0.38
2022-09-22T23:01:03.072Z,0.52
2022-09-22T23:03:29.851Z,0.40
2022-09-22T23:05:57.570Z,0.30
2022-09-22T23:08:24.294Z,0.50
2022-09-22T23:10:50.774Z,0.50
2022-09-22T23:13:19.202Z,0.30
2022-09-22T23:15:45.701Z,0.43
2022-09-22T23:18:12.217Z,0.40
2022-09-22T23:20:38.689Z,0.40
2022-09-22T23:23:05.190Z,0.50
2022-09-22T23:25:33.584Z,0.50
2022-09-22T23:28:01.910Z,0.30
2022-09-22T23:30:28.822Z,0.47
2022-09-22T23:32:57.083Z,0.32
2022-09-22T23:35:23.556Z,0.43
2022-09-22T23:37:50.853Z,0.50
2022-09-22T23:40:17.368Z,0.32
2022-09-22T23:42:44.365Z,0.40
2022-09-22T23:45:10.854Z,0.40
2022-09-22T23:47:37.392Z,0.40
2022-09-22T23:50:03.959Z,0.40
2022-09-22T23:52:31.378Z,0.40
2022-09-22T23:54:58.428Z,0.40
2022-09-22T23:57:24.877Z,0.60
2022-09-22T23:59:51.347Z,0.20
